Terminal Aerodrome Forecast
Issued by NWS Flagstaff, AZ

Home | Current Version | Previous Version | Text Only | Print | Product List | Glossary On
Versions: 1 2 3 4 5 6 7 8 9 10 11 12 13 14
242
FTUS45 KFGZ 262320
TAFINW
TAF
KINW 262320Z 2700/2724 VRB05KT P6SM SCT250
     FM270230 24011KT P6SM BKN250
     FM270700 12008KT P6SM BKN250
     FM271930 23018G31KT P6SM FEW120 BKN250=

USA.gov is the U.S. government's official web portal to all federal, state and local government web resources and services.